»·PEaware :: UAL837 KSAN-KSFO

UAL837 :: KSAN-KSFO

FLIGHT INFORMATION

Flight Status: Arrived
Operator:
United Airlines
More flights by this operator :: More flights under this callsign
Pilot: Amer K. (15838)
Aircraft: AIRBUS A319
(A319)
More flights by this aircraft type
Origin: KSAN San Diego Intl-Lindbergh
United States
Destination: KSFO San Francisco Intl
United States
More flights between these airports :: More routes between these airports
Route: +PADRZ2 IKAYE RIZIN SPLNT STOKD SERFR SERFR3
File this flight plan on PilotEdge
Remarks:
Altitude:
(Current/Filed)
38,000ft
Speed:
(Current/Filed)
450kts
Departed: 10-Nov-19 10:43 PM
Arrived: 10-Nov-19 11:55 PM
Distance/Time
Traveled:
388nm/1:12
Distance/Time
To Go:
Arrived

Flight Plot

Page will automatically refresh every two minutes.

Flight plan parsing failed; only flown route is shown


Map Options




Map Legend


Flown Route
Filed Route
Departure Airport
Arrival Airport
Navaid (VOR, NDB)
Fix

Horizontal Profiles

Position Reports

Time Latitude Longitude Heading Altitude Ground
Speed
10-Nov-19 21:54 32.732498 -117.200744 251 29ft 0kts
10-Nov-19 21:55 32.732498 -117.200744 251 29ft 0kts
10-Nov-19 21:56 32.732498 -117.200744 251 29ft 0kts
10-Nov-19 21:57 32.732498 -117.200744 251 29ft 0kts
10-Nov-19 21:58 32.732498 -117.200744 251 29ft 0kts
10-Nov-19 21:59 32.732498 -117.200744 251 29ft 0kts
10-Nov-19 22:00 32.732498 -117.200744 251 29ft 0kts
10-Nov-19 22:01 32.732498 -117.200744 251 29ft 0kts
10-Nov-19 22:02 32.732498 -117.200744 251 29ft 0kts
10-Nov-19 22:03 32.732498 -117.200744 251 29ft 0kts
10-Nov-19 22:04 32.732498 -117.200744 251 29ft 0kts
10-Nov-19 22:05 32.732498 -117.200744 251 29ft 0kts
10-Nov-19 22:06 32.732498 -117.200744 251 29ft 0kts
10-Nov-19 22:07 32.732498 -117.200744 251 29ft 0kts
10-Nov-19 22:08 32.732498 -117.200744 251 29ft 0kts
10-Nov-19 22:09 32.732498 -117.200744 251 29ft 0kts
10-Nov-19 22:10 32.732498 -117.200744 251 29ft 0kts
10-Nov-19 22:11 32.732498 -117.200744 251 29ft 0kts
10-Nov-19 22:12 32.732498 -117.200744 251 29ft 0kts
10-Nov-19 22:13 32.732498 -117.200744 251 29ft 0kts
10-Nov-19 22:14 32.732498 -117.200744 251 29ft 0kts
10-Nov-19 22:15 32.732498 -117.200744 251 29ft 0kts
10-Nov-19 22:16 32.732498 -117.200744 251 29ft 0kts
10-Nov-19 22:17 32.732498 -117.200744 251 29ft 0kts
10-Nov-19 22:18 32.732498 -117.200744 251 29ft 0kts
10-Nov-19 22:19 32.732498 -117.200744 251 29ft 0kts
10-Nov-19 22:20 32.732498 -117.200744 251 29ft 0kts
10-Nov-19 22:21 32.732498 -117.200744 251 29ft 0kts
10-Nov-19 22:22 32.732498 -117.200744 251 29ft 0kts
10-Nov-19 22:23 32.732498 -117.200744 251 29ft 0kts
10-Nov-19 22:24 32.732498 -117.200744 251 29ft 0kts
10-Nov-19 22:25 32.732501 -117.200736 251 29ft 0kts
10-Nov-19 22:26 32.732684 -117.200072 307 29ft 2kts
10-Nov-19 22:27 32.732457 -117.200095 12 29ft 0kts
10-Nov-19 22:28 32.732458 -117.200095 12 29ft 0kts
10-Nov-19 22:29 32.732460 -117.200095 12 29ft 0kts
10-Nov-19 22:30 32.732461 -117.200094 12 29ft 0kts
10-Nov-19 22:31 32.732463 -117.200094 12 29ft 0kts
10-Nov-19 22:32 32.732464 -117.200093 12 29ft 0kts
10-Nov-19 22:33 32.733440 -117.199840 11 29ft 9kts
10-Nov-19 22:34 32.734801 -117.199100 98 29ft 5kts
10-Nov-19 22:35 32.733805 -117.195067 104 29ft 18kts
10-Nov-19 22:36 32.732492 -117.189657 106 29ft 22kts
10-Nov-19 22:37 32.730523 -117.181433 105 29ft 21kts
10-Nov-19 22:38 32.729503 -117.177026 82 29ft 0kts
10-Nov-19 22:39 32.729503 -117.177024 82 29ft 0kts
10-Nov-19 22:40 32.729508 -117.176977 82 29ft 2kts
10-Nov-19 22:41 32.730345 -117.176418 286 29ft 0kts
10-Nov-19 22:42 32.736101 -117.204744 286 685ft 187kts
10-Nov-19 22:43 32.763588 -117.253464 303 3917ft 232kts
10-Nov-19 22:44 32.795412 -117.311426 304 6952ft 275kts
10-Nov-19 22:45 32.843639 -117.386562 308 10966ft 301kts
10-Nov-19 22:46 32.900210 -117.474629 309 13393ft 366kts
10-Nov-19 22:47 32.966577 -117.577997 309 14989ft 407kts
10-Nov-19 22:48 33.035063 -117.685065 309 14981ft 407kts
10-Nov-19 22:49 33.107031 -117.774945 322 14986ft 403kts
10-Nov-19 22:50 33.172625 -117.839942 321 15200ft 404kts
10-Nov-19 22:51 33.235807 -117.911791 317 17307ft 416kts
10-Nov-19 22:52 33.318982 -118.011406 318 19901ft 430kts
10-Nov-19 22:53 33.404436 -118.113534 319 22260ft 439kts
10-Nov-19 22:54 33.466626 -118.188296 319 23692ft 446kts
10-Nov-19 22:55 33.538647 -118.274711 319 25122ft 455kts
10-Nov-19 22:56 33.599470 -118.348100 319 26150ft 461kts
10-Nov-19 22:57 33.682522 -118.448467 319 27612ft 462kts
10-Nov-19 22:58 33.772186 -118.557254 319 29496ft 457kts
10-Nov-19 22:59 33.845762 -118.646612 319 31123ft 451kts
10-Nov-19 23:00 33.900221 -118.712891 319 32365ft 445kts
10-Nov-19 23:01 33.962726 -118.789304 320 33753ft 440kts
10-Nov-19 23:02 34.047919 -118.893540 320 35588ft 432kts
10-Nov-19 23:03 34.131537 -118.996323 319 37197ft 427kts
10-Nov-19 23:04 34.198180 -119.116845 307 38071ft 433kts
10-Nov-19 23:05 34.261378 -119.239997 308 38062ft 430kts
10-Nov-19 23:06 34.319020 -119.352394 308 38065ft 430kts
10-Nov-19 23:07 34.372325 -119.456677 308 38102ft 429kts
10-Nov-19 23:08 34.441922 -119.571894 320 38100ft 416kts
10-Nov-19 23:09 34.521066 -119.667344 320 38028ft 416kts
10-Nov-19 23:10 34.562268 -119.718709 320 38006ft 416kts
10-Nov-19 23:11 34.621678 -119.791895 320 38001ft 416kts
10-Nov-19 23:12 34.698555 -119.887078 320 38024ft 418kts
10-Nov-19 23:13 34.742465 -119.941548 320 38072ft 418kts
10-Nov-19 23:14 34.823888 -120.042871 320 38119ft 417kts
10-Nov-19 23:15 34.904296 -120.143100 320 38105ft 413kts
10-Nov-19 23:16 34.984632 -120.243591 319 38047ft 411kts
10-Nov-19 23:17 35.057748 -120.335311 319 38047ft 413kts
10-Nov-19 23:18 35.124971 -120.415047 322 38046ft 414kts
10-Nov-19 23:20 35.210285 -120.510081 322 38110ft 416kts
10-Nov-19 23:21 35.273344 -120.581159 322 38135ft 415kts
10-Nov-19 23:22 35.358579 -120.677076 322 38134ft 415kts
10-Nov-19 23:23 35.443245 -120.772751 322 38145ft 414kts
10-Nov-19 23:24 35.528323 -120.860404 327 38079ft 411kts
10-Nov-19 23:25 35.617659 -120.942559 327 38068ft 412kts
10-Nov-19 23:26 35.709013 -121.027731 327 38133ft 411kts
10-Nov-19 23:27 35.777972 -121.092074 326 38159ft 411kts
10-Nov-19 23:28 35.869350 -121.177612 326 38075ft 411kts
10-Nov-19 23:29 35.957100 -121.259965 326 37168ft 408kts
10-Nov-19 23:30 36.047016 -121.344710 326 35595ft 400kts
10-Nov-19 23:31 36.138218 -121.419347 331 33709ft 388kts
10-Nov-19 23:32 36.204570 -121.470863 330 32295ft 388kts
10-Nov-19 23:33 36.296336 -121.542823 330 30095ft 395kts
10-Nov-19 23:34 36.387864 -121.614652 330 27745ft 407kts
10-Nov-19 23:35 36.485099 -121.691207 329 24942ft 420kts
10-Nov-19 23:36 36.577557 -121.764402 330 23397ft 374kts
10-Nov-19 23:37 36.664590 -121.833148 329 20655ft 367kts
10-Nov-19 23:38 36.750621 -121.897257 343 18096ft 351kts
10-Nov-19 23:39 36.843831 -121.922690 349 15590ft 339kts
10-Nov-19 23:40 36.934161 -121.948227 348 14499ft 328kts
10-Nov-19 23:41 36.992058 -121.967565 342 12719ft 329kts
10-Nov-19 23:41 37.063138 -121.996871 343 10739ft 321kts
10-Nov-19 23:43 37.133641 -122.024061 343 9918ft 279kts
10-Nov-19 23:44 37.206853 -122.052702 343 8201ft 273kts
10-Nov-19 23:44 37.264816 -122.075430 343 7982ft 256kts
10-Nov-19 23:46 37.340628 -122.105281 343 6957ft 244kts
10-Nov-19 23:46 37.392519 -122.125437 346 6251ft 213kts
10-Nov-19 23:47 37.444338 -122.143060 346 5439ft 176kts
10-Nov-19 23:49 37.499107 -122.161894 344 3817ft 176kts
10-Nov-19 23:49 37.536908 -122.180517 308 3023ft 180kts
10-Nov-19 23:50 37.560423 -122.236350 299 2180ft 179kts
10-Nov-19 23:51 37.581268 -122.285838 298 1321ft 133kts
10-Nov-19 23:52 37.596461 -122.321989 296 710ft 113kts
10-Nov-19 23:54 37.613135 -122.361725 296 35ft 111kts
10-Nov-19 23:54 37.619816 -122.377620 298 27ft 14kts
10-Nov-19 23:55 37.619536 -122.379480 227 27ft 0kts
10-Nov-19 23:56 37.619535 -122.379481 227 27ft 0kts
10-Nov-19 23:57 37.619534 -122.379483 227 27ft 0kts
10-Nov-19 23:58 37.619533 -122.379484 227 27ft 0kts
10-Nov-19 23:59 37.619153 -122.380243 257 27ft 9kts
11-Nov-19 00:00 37.619830 -122.382451 297 27ft 13kts
11-Nov-19 00:01 37.621927 -122.387370 298 27ft 20kts
11-Nov-19 00:02 37.622115 -122.391127 219 27ft 11kts
11-Nov-19 00:03 37.619753 -122.392334 128 27ft 7kts
11-Nov-19 00:04 37.618646 -122.389800 117 27ft 5kts
11-Nov-19 00:05 37.618070 -122.388585 134 27ft 0kts
11-Nov-19 00:06 37.617895 -122.388380 138 27ft 0kts
11-Nov-19 00:07 37.617895 -122.388380 138 27ft 0kts
11-Nov-19 00:08 37.617895 -122.388380 138 27ft 0kts

Navigation Log

Ident Type
Flight plan parsing failed, navigation log unavailable